Latest Weather Observations for Outer Harbor (Black Pole)

IDS60801

Issued at 2:32 pm CDT Monday 30 March 2015 (issued every 30 minutes, with the page automatically refreshed every 10 minutes)

About weather observations | Map of weather stations | Latest weather observations for SA | Other Formats
Station Details ID: 023052 Name: BLACK POLE Lat: -34.73 Lon: 138.47 Height: 8.0 m
Data from the previous 72 hours. | See also: Recent months for locations in South Australia
Date/Time
CDT
Temp
°C
App
Temp
°C
Dew
Point
Rel
Hum
%
Delta-T
°C
Wind Press
QNH
hPa
Press
MSL
hPa
Rain
since 9 am
mm
Dir
 
Spd
km/h
Gust
km/h
Spd
kts
Gust
kts
30/02:30pm - - - - - WSW 17 20 9 11 - - -
30/02:00pm - - - - - SW 19 20 10 11 - - -
30/01:30pm - - - - - SW 15 17 8 9 - - -
30/01:00pm - - - - - WSW 13 15 7 8 - - -
30/12:30pm - - - - - SW 11 13 6 7 - - -
30/12:00pm - - - - - SW 7 9 4 5 - - -
30/11:30am - - - - - WSW 4 6 2 3 - - -
30/11:00am - - - - - SW 4 4 2 2 - - -
30/10:30am - - - - - CALM 0 2 0 1 - - -
30/10:00am - - - - - ENE 4 6 2 3 - - -
30/09:30am - - - - - NE 9 13 5 7 - - -
30/09:00am - - - - - NE 13 15 7 8 - - -
30/08:30am - - - - - ENE 15 17 8 9 - - -
30/08:00am - - - - - ENE 13 17 7 9 - - -
30/07:30am - - - - - NE 13 17 7 9 - - -
30/07:00am - - - - - NE 11 15 6 8 - - -
30/06:30am - - - - - NE 11 13 6 7 - - -
30/06:00am - - - - - NE 11 13 6 7 - - -
30/05:30am - - - - - NE 13 15 7 8 - - -
30/05:00am - - - - - NE 11 13 6 7 - - -
30/04:30am - - - - - NE 7 9 4 5 - - -
30/04:00am - - - - - ENE 7 9 4 5 - - -
30/03:30am - - - - - ENE 9 9 5 5 - - -
30/03:00am - - - - - SE 6 7 3 4 - - -
30/02:30am - - - - - SSE 7 9 4 5 - - -
30/02:00am - - - - - S 9 11 5 6 - - -
30/01:30am - - - - - S 9 11 5 6 - - -
30/01:00am - - - - - S 9 11 5 6 - - -
30/12:30am - - - - - SSW 11 13 6 7 - - -
30/12:00am - - - - - SSW 13 17 7 9 - - -
 
Date/Time
CDT
Temp
°C
App
Temp
°C
Dew
Point
Rel
Hum
%
Delta-T
°C
Wind Press
QNH
hPa
Press
MSL
hPa
Rain
since 9 am
mm
Dir
 
Spd
km/h
Gust
km/h
Spd
kts
Gust
kts
29/11:30pm - - - - - SSW 15 17 8 9 - - -
29/11:00pm - - - - - SSW 11 15 6 8 - - -
29/10:30pm - - - - - S 11 13 6 7 - - -
29/10:00pm - - - - - S 11 15 6 8 - - -
29/09:30pm - - - - - S 7 11 4 6 - - -
29/09:00pm - - - - - S 11 13 6 7 - - -
29/08:30pm - - - - - S 13 13 7 7 - - -
29/08:00pm - - - - - SSW 11 13 6 7 - - -
29/07:30pm - - - - - SSW 13 17 7 9 - - -
29/07:00pm - - - - - SSW 11 11 6 6 - - -
29/06:30pm - - - - - SSW 13 13 7 7 - - -
29/06:00pm - - - - - S 13 15 7 8 - - -
29/05:30pm - - - - - S 17 19 9 10 - - -
29/05:00pm - - - - - SSW 19 22 10 12 - - -
29/04:30pm - - - - - SSW 15 17 8 9 - - -
29/04:00pm - - - - - SSW 15 17 8 9 - - -
29/03:30pm - - - - - SSW 11 13 6 7 - - -
29/03:00pm - - - - - SSW 9 11 5 6 - - -
29/02:30pm - - - - - SW 7 9 4 5 - - -
29/02:00pm - - - - - SW 7 9 4 5 - - -
29/01:30pm - - - - - SW 6 7 3 4 - - -
29/01:00pm - - - - - WSW 7 9 4 5 - - -
29/12:30pm - - - - - W 7 7 4 4 - - -
29/12:00pm - - - - - W 4 7 2 4 - - -
29/11:30am - - - - - CALM 0 0 0 0 - - -
29/11:00am - - - - - E 4 6 2 3 - - -
29/10:30am - - - - - ENE 6 7 3 4 - - -
29/10:00am - - - - - ENE 6 7 3 4 - - -
29/09:30am - - - - - NE 9 11 5 6 - - -
29/09:00am - - - - - NE 9 11 5 6 - - -
29/08:30am - - - - - NE 7 9 4 5 - - -
29/08:00am - - - - - NE 9 11 5 6 - - -
29/07:30am - - - - - NE 11 13 6 7 - - -
29/07:00am - - - - - NE 9 11 5 6 - - -
29/06:30am - - - - - NE 6 9 3 5 - - -
29/06:00am - - - - - NNE 6 7 3 4 - - -
29/05:30am - - - - - NNE 9 13 5 7 - - -
29/05:00am - - - - - NE 11 13 6 7 - - -
29/04:30am - - - - - NE 13 15 7 8 - - -
29/04:00am - - - - - NE 15 17 8 9 - - -
29/03:30am - - - - - NE 13 15 7 8 - - -
29/03:00am - - - - - NE 13 15 7 8 - - -
29/02:30am - - - - - NE 15 17 8 9 - - -
29/02:00am - - - - - NE 11 13 6 7 - - -
29/01:30am - - - - - NE 9 11 5 6 - - -
29/01:00am - - - - - NE 9 11 5 6 - - -
29/12:30am - - - - - NE 9 9 5 5 - - -
29/12:00am - - - - - NE 7 9 4 5 - - -
 
Date/Time
CDT
Temp
°C
App
Temp
°C
Dew
Point
Rel
Hum
%
Delta-T
°C
Wind Press
QNH
hPa
Press
MSL
hPa
Rain
since 9 am
mm
Dir
 
Spd
km/h
Gust
km/h
Spd
kts
Gust
kts
28/11:30pm - - - - - ENE 7 9 4 5 - - -
28/11:00pm - - - - - E 2 4 1 2 - - -
28/10:30pm - - - - - NNE 2 2 1 1 - - -
28/10:00pm - - - - - CALM 0 2 0 1 - - -
28/09:30pm - - - - - CALM 0 0 0 0 - - -
28/09:00pm - - - - - ESE 2 4 1 2 - - -
28/08:30pm - - - - - SE 6 7 3 4 - - -
28/08:00pm - - - - - SSE 4 7 2 4 - - -
28/07:30pm - - - - - S 7 9 4 5 - - -
28/07:00pm - - - - - SSW 9 13 5 7 - - -
28/06:30pm - - - - - SW 6 7 3 4 - - -
28/06:00pm - - - - - SSW 6 7 3 4 - - -
28/05:30pm - - - - - SSW 7 7 4 4 - - -
28/05:00pm - - - - - S 9 11 5 6 - - -
28/04:30pm - - - - - SW 9 13 5 7 - - -
28/04:00pm - - - - - SSW 9 11 5 6 - - -
28/03:30pm - - - - - SSW 11 13 6 7 - - -
28/03:00pm - - - - - WSW 9 9 5 5 - - -
28/02:30pm - - - - - WSW 9 13 5 7 - - -
28/02:00pm - - - - - W 13 15 7 8 - - -
28/01:30pm - - - - - W 13 15 7 8 - - -
28/01:00pm - - - - - W 13 15 7 8 - - -
28/12:30pm - - - - - W 7 11 4 6 - - -
28/12:00pm - - - - - NE 11 17 6 9 - - -
28/11:30am - - - - - NNE 13 19 7 10 - - -
28/11:00am - - - - - NE 17 20 9 11 - - -
28/10:30am - - - - - NE 19 24 10 13 - - -
28/10:00am - - - - - NE 11 17 6 9 - - -
28/09:30am - - - - - NE 7 9 4 5 - - -
28/09:00am - - - - - NE 7 11 4 6 - - -
28/08:30am - - - - - ENE 11 13 6 7 - - -
28/08:00am - - - - - ENE 13 15 7 8 - - -
28/07:30am - - - - - ENE 11 15 6 8 - - -
28/07:00am - - - - - ENE 9 13 5 7 - - -
28/06:30am - - - - - NE 11 15 6 8 - - -
28/06:00am - - - - - NE 9 11 5 6 - - -
28/05:30am - - - - - NE 7 9 4 5 - - -
28/05:00am - - - - - NNE 7 9 4 5 - - -
28/04:30am - - - - - N 9 13 5 7 - - -
28/04:00am - - - - - NNE 7 9 4 5 - - -
28/03:30am - - - - - ENE 7 9 4 5 - - -
28/03:00am - - - - - ESE 9 13 5 7 - - -
28/02:30am - - - - - ESE 15 19 8 10 - - -
28/02:00am - - - - - ESE 19 20 10 11 - - -
28/01:30am - - - - - ESE 17 19 9 10 - - -
28/01:00am - - - - - ESE 19 24 10 13 - - -
28/12:30am - - - - - SE 20 24 11 13 - - -
28/12:00am - - - - - SE 17 20 9 11 - - -
 
Date/Time
CDT
Temp
°C
App
Temp
°C
Dew
Point
Rel
Hum
%
Delta-T
°C
Wind Press
QNH
hPa
Press
MSL
hPa
Rain
since 9 am
mm
Dir
 
Spd
km/h
Gust
km/h
Spd
kts
Gust
kts
27/11:30pm - - - - - SE 20 24 11 13 - - -
27/11:00pm - - - - - SE 19 22 10 12 - - -
27/10:30pm - - - - - SE 17 20 9 11 - - -
27/10:00pm - - - - - SSE 15 20 8 11 - - -
27/09:30pm - - - - - S 17 20 9 11 - - -
27/09:00pm - - - - - S 19 24 10 13 - - -
27/08:30pm - - - - - S 20 28 11 15 - - -
27/08:00pm - - - - - S 24 30 13 16 - - -
27/07:30pm - - - - - S 24 30 13 16 - - -
27/07:00pm - - - - - S 28 32 15 17 - - -
27/06:30pm - - - - - SSW 24 30 13 16 - - -
27/06:00pm - - - - - SSW 24 30 13 16 - - -
27/05:30pm - - - - - SSW 24 30 13 16 - - -
27/05:00pm - - - - - SSW 20 26 11 14 - - -
27/04:30pm - - - - - SW 22 28 12 15 - - -
27/04:00pm - - - - - SW 22 28 12 15 - - -
27/03:30pm - - - - - SW 22 26 12 14 - - -
27/03:00pm - - - - - WSW 19 24 10 13 - - -

Other Formats:

Comma delimited format used in spreadsheet applications
http://www.bom.gov.au/fwo/IDS60801/IDS60801.95675.axf

JavaScript Object Notation format (JSON) in row-major order
http://www.bom.gov.au/fwo/IDS60801/IDS60801.95675.json